Time;durP1;ratioP1;P1;durP2;ratioP2;P2;SDS_P1;SDS_P2;PMS_P1;PMS_P2;Temp;Humidity;BMP_temperature;BMP_pressure;BME280_temperature;BME280_humidity;BME280_pressure;Samples;Min_cycle;Max_cycle;Signal;HPM_P1;HPM_P2
2021/06/18 00:00:52;;;;;;;0.40;0.30;;;22.40;99.90;;;;;;4973340;28;20402;-76
2021/06/18 00:03:18;;;;;;;0.40;0.20;;;22.40;99.90;;;;;;4973107;28;20376;-76
2021/06/18 00:05:43;;;;;;;0.50;0.30;;;22.40;99.90;;;;;;4973230;28;20867;-76
2021/06/18 00:08:09;;;;;;;0.40;0.30;;;22.40;99.90;;;;;;4973164;28;20450;-76
2021/06/18 00:10:35;;;;;;;0.70;0.60;;;22.40;99.90;;;;;;4973589;28;20416;-76
2021/06/18 00:13:00;;;;;;;0.40;0.30;;;22.30;99.90;;;;;;4990306;28;20414;-78
2021/06/18 00:15:27;;;;;;;0.40;0.20;;;22.30;99.90;;;;;;4978885;28;20416;-76
2021/06/18 00:17:53;;;;;;;0.40;0.30;;;22.20;99.90;;;;;;4973581;28;20427;-76
2021/06/18 00:20:19;;;;;;;0.50;0.30;;;22.20;99.90;;;;;;4987793;28;20408;-76
2021/06/18 00:22:45;;;;;;;0.40;0.30;;;22.20;99.90;;;;;;4988422;28;20454;-76
2021/06/18 00:25:12;;;;;;;0.40;0.30;;;22.10;99.90;;;;;;4939576;28;20447;-76
2021/06/18 00:27:37;;;;;;;0.40;0.30;;;22.10;99.90;;;;;;4973461;28;20500;-76
2021/06/18 00:30:06;;;;;;;0.40;0.30;;;22.00;99.90;;;;;;4972702;28;20947;-79
2021/06/18 00:32:31;;;;;;;0.40;0.30;;;22.00;99.90;;;;;;4988262;28;20404;-76
2021/06/18 00:34:57;;;;;;;0.40;0.30;;;22.00;99.90;;;;;;4988186;28;20433;-76
2021/06/18 00:37:22;;;;;;;0.40;0.30;;;21.90;99.90;;;;;;4972230;28;20397;-76
2021/06/18 00:39:48;;;;;;;0.40;0.22;;;22.00;99.90;;;;;;4988286;28;20393;-76
2021/06/18 00:42:14;;;;;;;0.40;0.30;;;21.90;99.90;;;;;;4972291;28;20388;-76
2021/06/18 00:44:40;;;;;;;0.40;0.20;;;21.80;99.90;;;;;;4987707;28;20452;-76
2021/06/18 00:47:13;;;;;;;0.40;0.30;;;21.80;99.90;;;;;;4972130;28;20448;-77
2021/06/18 00:49:39;;;;;;;0.70;0.70;;;21.70;99.90;;;;;;4972597;28;20516;-75
2021/06/18 00:52:05;;;;;;;0.40;0.30;;;21.60;99.90;;;;;;4972111;28;20454;-78
2021/06/18 00:54:31;;;;;;;0.40;0.22;;;21.70;99.90;;;;;;4973211;28;20392;-75
2021/06/18 00:56:58;;;;;;;0.40;0.20;;;21.60;99.90;;;;;;4972684;28;20440;-76
2021/06/18 00:59:25;;;;;;;0.88;0.47;;;21.70;99.90;;;;;;4971800;28;20399;-75
2021/06/18 01:01:51;;;;;;;0.40;0.30;;;21.60;99.90;;;;;;4972257;28;20448;-75
2021/06/18 01:04:19;;;;;;;0.40;0.30;;;21.50;99.90;;;;;;4971972;28;20388;-74
2021/06/18 01:06:52;;;;;;;0.40;0.30;;;21.50;99.90;;;;;;4954950;28;20907;-74
2021/06/18 01:09:21;;;;;;;0.40;0.30;;;21.50;99.90;;;;;;4971645;28;20443;-75
2021/06/18 01:12:14;;;;;;;0.40;0.30;;;21.50;99.90;;;;;;4973125;28;20400;-75
2021/06/18 01:15:14;;;;;;;0.40;0.30;;;21.40;99.90;;;;;;4972537;28;20416;-75
2021/06/18 01:18:00;;;;;;;0.40;0.30;;;21.40;99.90;;;;;;4938941;29;20432;-75
2021/06/18 01:20:38;;;;;;;0.40;0.30;;;21.40;99.90;;;;;;4954063;28;21406;-75
2021/06/18 01:23:21;;;;;;;0.40;0.30;;;21.30;99.90;;;;;;4971603;28;20900;-77
2021/06/18 01:25:50;;;;;;;0.40;0.30;;;21.40;99.90;;;;;;4971969;28;20403;-75
2021/06/18 01:28:41;;;;;;;0.40;0.30;;;21.40;99.90;;;;;;4971482;28;20729;-74
2021/06/18 01:31:11;;;;;;;0.40;0.20;;;21.40;99.90;;;;;;4971291;28;20439;-77
2021/06/18 01:33:38;;;;;;;0.40;0.20;;;21.40;99.90;;;;;;4972204;28;20396;-75
2021/06/18 01:36:08;;;;;;;0.40;0.30;;;21.40;99.90;;;;;;4986377;28;20440;-77
2021/06/18 01:38:38;;;;;;;0.40;0.20;;;21.40;99.90;;;;;;4972149;28;20451;-75
2021/06/18 01:41:09;;;;;;;0.40;0.30;;;21.40;99.90;;;;;;4971457;28;20419;-77
2021/06/18 01:43:35;;;;;;;0.40;0.20;;;21.30;99.90;;;;;;4986568;28;20420;-75
2021/06/18 01:46:02;;;;;;;0.40;0.20;;;21.50;99.90;;;;;;4971764;28;20964;-74
2021/06/18 01:48:29;;;;;;;0.40;0.30;;;21.20;99.90;;;;;;4971013;28;20471;-74
2021/06/18 01:50:56;;;;;;;0.40;0.30;;;21.20;99.90;;;;;;4972145;28;20492;-75
2021/06/18 01:53:24;;;;;;;0.40;0.20;;;21.10;99.90;;;;;;4971375;28;20400;-75
2021/06/18 01:55:50;;;;;;;0.40;0.30;;;21.00;99.90;;;;;;4971641;28;20428;-75
2021/06/18 01:58:18;;;;;;;0.40;0.20;;;20.90;99.90;;;;;;4970945;28;20946;-75
2021/06/18 02:00:50;;;;;;;0.40;0.20;;;20.90;99.90;;;;;;4970643;28;20396;-75
2021/06/18 02:03:22;;;;;;;0.40;0.20;;;20.70;99.90;;;;;;4970754;28;20408;-75
2021/06/18 02:05:50;;;;;;;0.40;0.30;;;20.80;99.90;;;;;;4971458;28;20384;-75
2021/06/18 02:08:16;;;;;;;0.40;0.20;;;20.70;99.90;;;;;;4970303;28;20427;-74
2021/06/18 02:10:44;;;;;;;0.40;0.30;;;20.80;99.90;;;;;;4971494;28;20397;-75
2021/06/18 02:13:12;;;;;;;0.40;0.30;;;20.80;99.90;;;;;;4986833;28;20417;-77
2021/06/18 02:15:40;;;;;;;0.40;0.30;;;20.70;99.90;;;;;;4950677;29;20422;-74
2021/06/18 02:18:11;;;;;;;0.40;0.20;;;20.80;99.90;;;;;;4942493;28;20399;-76
2021/06/18 02:20:39;;;;;;;0.40;0.30;;;20.70;99.90;;;;;;4933109;29;20721;-74
2021/06/18 02:23:08;;;;;;;0.40;0.30;;;20.60;99.90;;;;;;4933257;29;20412;-74
2021/06/18 02:25:35;;;;;;;0.40;0.30;;;20.60;99.90;;;;;;4941497;29;20403;-75
2021/06/18 02:28:01;;;;;;;0.40;0.20;;;20.60;99.90;;;;;;4952287;28;20390;-75
2021/06/18 02:30:27;;;;;;;0.40;0.30;;;20.60;99.90;;;;;;4950890;28;20398;-75
2021/06/18 02:32:56;;;;;;;0.40;0.20;;;20.60;99.90;;;;;;4952173;28;20420;-74
2021/06/18 02:35:23;;;;;;;0.40;0.30;;;20.40;99.90;;;;;;4951233;28;20449;-75
2021/06/18 02:37:49;;;;;;;0.40;0.20;;;20.40;99.90;;;;;;4952095;28;20425;-74
2021/06/18 02:40:15;;;;;;;0.40;0.30;;;20.40;99.90;;;;;;4937268;29;20749;-75
2021/06/18 02:42:40;;;;;;;0.40;0.30;;;20.30;99.90;;;;;;4931556;29;20396;-75
2021/06/18 02:45:07;;;;;;;0.40;0.20;;;20.30;99.90;;;;;;4933026;29;20405;-74
2021/06/18 02:47:39;;;;;;;0.40;0.30;;;20.30;99.90;;;;;;4931927;29;20487;-74
2021/06/18 02:50:27;;;;;;;0.40;0.20;;;20.30;99.90;;;;;;4936414;29;20410;-74
2021/06/18 02:53:07;;;;;;;0.60;0.40;;;20.30;99.90;;;;;;4952127;28;20380;-74
2021/06/18 02:55:51;;;;;;;0.40;0.20;;;20.50;99.90;;;;;;4951147;28;20472;-75
2021/06/18 02:58:19;;;;;;;0.40;0.20;;;20.50;99.90;;;;;;4936595;28;20475;-75
2021/06/18 03:00:46;;;;;;;0.40;0.20;;;20.40;99.90;;;;;;4940053;29;20457;-74
2021/06/18 03:03:22;;;;;;;0.40;0.30;;;20.30;99.90;;;;;;4948499;28;20485;-76
2021/06/18 03:05:50;;;;;;;0.40;0.20;;;20.30;99.90;;;;;;4932677;29;20407;-74
2021/06/18 03:08:17;;;;;;;0.40;0.40;;;20.30;99.90;;;;;;4947309;29;20398;-75
2021/06/18 03:10:48;;;;;;;0.40;0.30;;;20.30;99.90;;;;;;4942522;28;20899;-75
2021/06/18 03:13:23;;;;;;;1.50;0.60;;;20.40;99.90;;;;;;4940835;28;20895;-76
2021/06/18 03:15:49;;;;;;;0.40;0.20;;;20.30;99.90;;;;;;4917479;29;20496;-74
2021/06/18 03:18:20;;;;;;;0.40;0.20;;;20.30;99.90;;;;;;4939683;29;22283;-76
2021/06/18 03:20:49;;;;;;;0.40;0.25;;;20.40;99.90;;;;;;4935810;29;20404;-75
2021/06/18 03:23:17;;;;;;;0.40;0.30;;;20.30;99.90;;;;;;4935393;29;20383;-75
2021/06/18 03:25:43;;;;;;;0.40;0.20;;;20.30;99.90;;;;;;4935770;29;20450;-75
2021/06/18 03:28:11;;;;;;;0.40;0.30;;;20.30;99.90;;;;;;4935680;29;20399;-75
2021/06/18 03:30:37;;;;;;;0.40;0.30;;;20.40;99.90;;;;;;4935633;29;20396;-75
2021/06/18 03:33:03;;;;;;;0.40;0.30;;;20.30;99.90;;;;;;4935733;29;20479;-75
2021/06/18 03:35:31;;;;;;;0.40;0.20;;;20.40;99.90;;;;;;4935348;29;20414;-75
2021/06/18 03:37:57;;;;;;;0.40;0.20;;;20.40;99.90;;;;;;4935269;29;20399;-75
2021/06/18 03:40:24;;;;;;;0.40;0.20;;;20.50;99.90;;;;;;4934442;29;20399;-75
2021/06/18 03:42:51;;;;;;;0.40;0.20;;;20.50;99.90;;;;;;4935340;29;20399;-75
2021/06/18 03:45:18;;;;;;;0.40;0.20;;;20.60;99.90;;;;;;4935091;29;20403;-76
2021/06/18 03:47:45;;;;;;;0.40;0.20;;;20.60;99.90;;;;;;4935389;29;20451;-75
2021/06/18 03:50:13;;;;;;;0.40;0.30;;;20.60;99.90;;;;;;4935482;29;20427;-74
2021/06/18 03:52:40;;;;;;;0.40;0.20;;;20.60;99.90;;;;;;4935049;29;20857;-75
2021/06/18 03:55:08;;;;;;;0.40;0.20;;;20.70;99.90;;;;;;4935129;29;20430;-75
2021/06/18 03:57:35;;;;;;;0.40;0.30;;;20.70;99.90;;;;;;4932977;29;20399;-75
2021/06/18 04:00:03;;;;;;;0.40;0.30;;;20.70;99.90;;;;;;4935488;29;20740;-75
2021/06/18 04:02:31;;;;;;;0.40;0.30;;;20.70;99.90;;;;;;4934650;29;20400;-75
2021/06/18 04:04:58;;;;;;;0.40;0.30;;;20.70;99.90;;;;;;4935315;29;20454;-75
2021/06/18 04:07:25;;;;;;;0.40;0.30;;;20.70;99.90;;;;;;4934910;29;20427;-72
2021/06/18 04:09:52;;;;;;;0.40;0.20;;;20.70;99.90;;;;;;4935285;29;20427;-73
2021/06/18 04:12:18;;;;;;;0.40;0.20;;;20.80;99.90;;;;;;4935611;29;20411;-75
2021/06/18 04:14:44;;;;;;;0.40;0.20;;;20.80;99.90;;;;;;4958249;28;20421;-74
2021/06/18 04:17:10;;;;;;;0.40;0.30;;;20.80;99.90;;;;;;4956711;28;20500;-75
2021/06/18 04:19:37;;;;;;;0.40;0.20;;;20.80;99.90;;;;;;4972793;28;20468;-76
2021/06/18 04:22:04;;;;;;;0.40;0.20;;;21.00;99.90;;;;;;4974062;28;20392;-75
2021/06/18 04:24:30;;;;;;;0.40;0.20;;;21.10;99.90;;;;;;4972575;28;20388;-75
2021/06/18 04:26:56;;;;;;;0.50;0.50;;;21.30;99.90;;;;;;4955939;28;20451;-75
2021/06/18 04:29:22;;;;;;;0.40;0.20;;;21.40;99.90;;;;;;4972571;28;20430;-75
2021/06/18 04:31:48;;;;;;;0.40;0.20;;;21.40;99.90;;;;;;4973540;28;20818;-77
2021/06/18 04:34:14;;;;;;;0.40;0.27;;;21.50;99.90;;;;;;4973579;28;20508;-76
2021/06/18 04:36:41;;;;;;;0.40;0.30;;;21.60;99.90;;;;;;4972765;28;20392;-75
2021/06/18 04:39:08;;;;;;;0.40;0.30;;;21.60;99.90;;;;;;4973126;28;20420;-76
2021/06/18 04:41:35;;;;;;;0.40;0.20;;;21.70;99.90;;;;;;4972506;28;20860;-74
2021/06/18 04:44:01;;;;;;;0.40;0.20;;;21.70;99.90;;;;;;4972844;28;20820;-75
2021/06/18 04:46:26;;;;;;;0.45;0.30;;;21.70;99.90;;;;;;4971763;28;20574;-75
2021/06/18 04:48:52;;;;;;;0.40;0.20;;;21.70;99.90;;;;;;4973107;28;20388;-75
2021/06/18 04:51:19;;;;;;;0.40;0.20;;;21.70;99.90;;;;;;4972413;28;20729;-77
2021/06/18 04:53:46;;;;;;;0.40;0.20;;;21.90;99.90;;;;;;4972420;28;20384;-75
2021/06/18 04:56:13;;;;;;;0.40;0.20;;;21.80;99.90;;;;;;4972814;28;20764;-76
2021/06/18 04:58:39;;;;;;;0.40;0.20;;;21.80;99.90;;;;;;4971933;28;20396;-75
2021/06/18 05:01:06;;;;;;;0.40;0.20;;;21.80;99.90;;;;;;4973881;28;20492;-76
2021/06/18 05:03:32;;;;;;;0.40;0.30;;;21.90;99.90;;;;;;4992427;28;20863;-75
2021/06/18 05:05:57;;;;;;;0.40;0.20;;;21.80;99.90;;;;;;4974392;28;20772;-76
2021/06/18 05:08:23;;;;;;;0.40;0.20;;;21.80;99.90;;;;;;4972355;28;20400;-79
2021/06/18 05:10:50;;;;;;;0.40;0.20;;;21.70;99.90;;;;;;4972759;28;20392;-79
2021/06/18 05:13:15;;;;;;;0.40;0.20;;;21.70;99.90;;;;;;4977558;28;20397;-78
2021/06/18 05:15:41;;;;;;;0.40;0.30;;;21.70;99.90;;;;;;4966791;28;20748;-78
2021/06/18 05:18:07;;;;;;;0.40;0.27;;;21.80;99.90;;;;;;4952614;29;20906;-79
2021/06/18 05:20:33;;;;;;;0.50;0.50;;;21.90;99.90;;;;;;4952504;29;20391;-79
2021/06/18 05:22:58;;;;;;;0.40;0.30;;;22.00;99.90;;;;;;4950632;29;20441;-79
2021/06/18 05:25:24;;;;;;;0.40;0.20;;;22.10;99.90;;;;;;4952544;28;20390;-81
2021/06/18 05:27:50;;;;;;;0.40;0.20;;;22.10;99.90;;;;;;4952470;29;20894;-81
2021/06/18 05:30:17;;;;;;;0.40;0.30;;;22.30;99.90;;;;;;4952734;29;20818;-81
2021/06/18 05:32:43;;;;;;;0.40;0.20;;;22.40;99.90;;;;;;4951848;29;20965;-81
2021/06/18 05:35:09;;;;;;;0.40;0.20;;;22.60;99.90;;;;;;4951294;28;20892;-80
2021/06/18 05:37:35;;;;;;;0.40;0.30;;;22.90;99.90;;;;;;4952140;29;20485;-78
2021/06/18 05:40:00;;;;;;;0.70;0.40;;;23.20;99.90;;;;;;4953599;29;20823;-80
2021/06/18 05:42:26;;;;;;;0.40;0.20;;;23.20;99.90;;;;;;4952295;28;20502;-81
2021/06/18 05:44:52;;;;;;;0.40;0.30;;;23.10;99.90;;;;;;4953012;28;20465;-80
2021/06/18 05:47:18;;;;;;;0.40;0.30;;;23.00;99.90;;;;;;4952928;29;20437;-80
2021/06/18 05:49:44;;;;;;;0.40;0.20;;;23.10;99.90;;;;;;4952918;28;20440;-79
2021/06/18 05:52:09;;;;;;;0.40;0.20;;;23.10;99.90;;;;;;4953420;29;20801;-81
2021/06/18 05:54:35;;;;;;;0.40;0.30;;;23.10;99.90;;;;;;4952201;29;20482;-76
2021/06/18 05:57:01;;;;;;;0.40;0.20;;;23.10;99.90;;;;;;4953327;29;20397;-79
2021/06/18 05:59:26;;;;;;;0.40;0.20;;;23.10;99.90;;;;;;4952477;29;20409;-81
2021/06/18 06:01:52;;;;;;;0.40;0.20;;;23.00;99.90;;;;;;4953321;29;20790;-80
2021/06/18 06:04:17;;;;;;;0.40;0.20;;;23.00;99.90;;;;;;4952988;29;20794;-78
2021/06/18 06:06:43;;;;;;;0.40;0.27;;;23.10;99.90;;;;;;4953871;28;20513;-80
2021/06/18 06:09:09;;;;;;;0.40;0.20;;;23.10;99.90;;;;;;4952469;29;20550;-78
2021/06/18 06:11:35;;;;;;;0.40;0.20;;;23.10;99.90;;;;;;4957601;28;20397;-78
2021/06/18 06:14:02;;;;;;;0.40;0.30;;;23.10;99.90;;;;;;4962181;28;20821;-80
2021/06/18 06:16:29;;;;;;;0.40;0.20;;;23.10;99.90;;;;;;4971326;28;20769;-80
2021/06/18 06:18:55;;;;;;;0.40;0.25;;;23.00;99.90;;;;;;4954736;28;20432;-80
2021/06/18 06:21:21;;;;;;;0.40;0.30;;;23.00;99.90;;;;;;4971833;28;20422;-79
2021/06/18 06:23:48;;;;;;;0.40;0.20;;;23.00;99.90;;;;;;4971434;28;20389;-80
2021/06/18 06:26:14;;;;;;;0.40;0.20;;;23.10;99.90;;;;;;4954393;28;20435;-78
2021/06/18 06:28:39;;;;;;;0.40;0.20;;;23.10;99.90;;;;;;4953800;28;20797;-83
2021/06/18 06:31:05;;;;;;;0.40;0.20;;;23.10;99.90;;;;;;4972083;28;20380;-83
2021/06/18 06:33:31;;;;;;;0.40;0.20;;;23.20;99.90;;;;;;4971324;28;20459;-80
2021/06/18 06:35:57;;;;;;;0.40;0.30;;;23.30;99.90;;;;;;4971953;28;20851;-82
2021/06/18 06:38:23;;;;;;;0.40;0.30;;;23.40;99.90;;;;;;4986500;28;20765;-83
2021/06/18 06:40:49;;;;;;;0.40;0.30;;;23.40;99.90;;;;;;4980069;28;20403;-80
2021/06/18 06:43:15;;;;;;;0.40;0.20;;;23.40;99.90;;;;;;4969787;28;20412;-83
2021/06/18 06:45:41;;;;;;;0.80;0.50;;;23.50;99.90;;;;;;4953580;28;20399;-82
2021/06/18 06:48:07;;;;;;;0.40;0.20;;;23.50;99.90;;;;;;4973650;28;20486;-76
2021/06/18 06:50:33;;;;;;;0.40;0.30;;;23.60;99.90;;;;;;4974464;28;20400;-75
2021/06/18 06:52:59;;;;;;;0.40;0.30;;;23.70;99.90;;;;;;4957477;28;20404;-75
2021/06/18 06:55:24;;;;;;;0.40;0.20;;;23.60;99.90;;;;;;4974316;28;20396;-76
2021/06/18 06:57:51;;;;;;;0.40;0.30;;;23.70;99.90;;;;;;4974846;28;20400;-77
2021/06/18 07:00:17;;;;;;;0.40;0.20;;;23.80;99.90;;;;;;4975263;28;20380;-75
2021/06/18 07:02:43;;;;;;;0.40;0.20;;;23.70;99.90;;;;;;4974493;28;20404;-75
2021/06/18 07:05:09;;;;;;;0.40;0.20;;;23.70;99.90;;;;;;4974988;28;20729;-75
2021/06/18 07:07:38;;;;;;;0.40;0.30;;;23.90;99.90;;;;;;4973716;28;20511;-76
2021/06/18 07:10:06;;;;;;;0.40;0.30;;;24.00;99.90;;;;;;4974905;28;20400;-76
2021/06/18 07:12:32;;;;;;;0.40;0.30;;;23.90;99.90;;;;;;4977034;28;20411;-76
2021/06/18 07:14:58;;;;;;;0.40;0.20;;;24.10;99.90;;;;;;4957314;28;20432;-77
2021/06/18 07:17:24;;;;;;;0.40;0.20;;;24.20;99.90;;;;;;4975079;28;20404;-79
2021/06/18 07:19:50;;;;;;;0.40;0.30;;;24.20;99.90;;;;;;4975034;28;20392;-78
2021/06/18 07:22:19;;;;;;;0.50;0.30;;;24.30;99.90;;;;;;4975006;28;20419;-78
2021/06/18 07:24:45;;;;;;;0.40;0.20;;;24.40;99.90;;;;;;4974637;28;20977;-77
2021/06/18 07:27:12;;;;;;;0.40;0.30;;;24.40;99.40;;;;;;4974694;28;20765;-78
2021/06/18 07:29:38;;;;;;;0.40;0.20;;;24.40;99.90;;;;;;4973988;28;20396;-78
2021/06/18 07:32:04;;;;;;;0.40;0.30;;;24.50;99.80;;;;;;4974434;28;20422;-78
2021/06/18 07:34:29;;;;;;;0.40;0.30;;;24.70;99.10;;;;;;4973622;28;20892;-78
2021/06/18 07:36:55;;;;;;;0.40;0.30;;;24.50;98.40;;;;;;4974860;28;20479;-78
2021/06/18 07:39:21;;;;;;;0.40;0.30;;;24.50;99.80;;;;;;4974506;28;20428;-76
2021/06/18 07:41:46;;;;;;;0.40;0.20;;;24.70;98.50;;;;;;4956433;28;20439;-77
2021/06/18 07:44:12;;;;;;;0.40;0.20;;;24.50;98.80;;;;;;4956689;28;20425;-78
2021/06/18 07:46:38;;;;;;;0.40;0.30;;;24.50;99.70;;;;;;4956102;28;20491;-78
2021/06/18 07:49:04;;;;;;;0.40;0.20;;;24.50;98.60;;;;;;4974331;28;20392;-78
2021/06/18 07:51:30;;;;;;;0.40;0.22;;;24.70;99.20;;;;;;4973707;28;20396;-79
2021/06/18 07:53:56;;;;;;;0.50;0.30;;;24.80;97.80;;;;;;4974204;28;20388;-78
2021/06/18 07:56:25;;;;;;;0.40;0.30;;;24.90;97.60;;;;;;4974297;28;20419;-75
2021/06/18 07:58:52;;;;;;;0.40;0.30;;;25.00;96.30;;;;;;4972402;28;20428;-77
2021/06/18 08:01:18;;;;;;;0.40;0.20;;;24.80;96.20;;;;;;4957030;28;20419;-77
2021/06/18 08:03:44;;;;;;;0.40;0.20;;;24.80;95.00;;;;;;4973379;28;20396;-78
2021/06/18 08:06:10;;;;;;;0.40;0.30;;;24.80;96.70;;;;;;4956790;28;20424;-77
2021/06/18 08:08:36;;;;;;;0.40;0.30;;;24.80;96.10;;;;;;4973262;28;20981;-75
2021/06/18 08:11:02;;;;;;;0.40;0.30;;;24.90;96.40;;;;;;4975071;28;20440;-76
2021/06/18 08:13:28;;;;;;;0.40;0.30;;;25.00;96.20;;;;;;4980558;28;20467;-81
2021/06/18 08:15:54;;;;;;;0.40;0.20;;;25.20;97.10;;;;;;4973805;28;20845;-78
2021/06/18 08:18:20;;;;;;;0.40;0.30;;;25.20;97.20;;;;;;4973812;28;20740;-77
2021/06/18 08:20:46;;;;;;;0.40;0.20;;;25.20;96.70;;;;;;4955507;28;20397;-76
2021/06/18 08:23:12;;;;;;;0.40;0.20;;;25.30;96.30;;;;;;4988808;28;20411;-76
2021/06/18 08:25:38;;;;;;;0.40;0.30;;;25.30;94.40;;;;;;4972939;28;20443;-76
2021/06/18 08:28:03;;;;;;;0.40;0.30;;;25.40;94.30;;;;;;4973264;28;20424;-76
2021/06/18 08:30:29;;;;;;;0.40;0.20;;;25.40;94.60;;;;;;4972974;28;20478;-80
2021/06/18 08:32:55;;;;;;;0.40;0.30;;;25.50;95.00;;;;;;4973218;28;20498;-78
2021/06/18 08:35:21;;;;;;;0.40;0.20;;;25.40;96.30;;;;;;4973296;28;20427;-78
2021/06/18 08:37:47;;;;;;;0.40;0.30;;;25.40;95.60;;;;;;4972783;28;20475;-78
2021/06/18 08:40:13;;;;;;;0.40;0.20;;;25.50;94.50;;;;;;4973467;28;20415;-78
2021/06/18 08:42:40;;;;;;;0.40;0.30;;;25.70;93.20;;;;;;4972816;28;20466;-78
2021/06/18 08:45:06;;;;;;;0.40;0.20;;;25.60;94.50;;;;;;4973387;28;20407;-77
2021/06/18 08:47:32;;;;;;;0.40;0.20;;;25.70;94.80;;;;;;4972533;28;20460;-80
2021/06/18 08:49:58;;;;;;;0.40;0.30;;;25.60;95.80;;;;;;4973286;28;20400;-75
2021/06/18 08:52:24;;;;;;;0.40;0.20;;;25.80;94.10;;;;;;4973668;28;20392;-77
2021/06/18 08:54:51;;;;;;;0.40;0.20;;;25.90;93.80;;;;;;4972512;28;20412;-78
2021/06/18 08:57:19;;;;;;;0.40;0.20;;;25.80;94.30;;;;;;4972891;28;20475;-77
2021/06/18 08:59:46;;;;;;;0.40;0.30;;;25.80;93.50;;;;;;4972368;28;20404;-75
2021/06/18 09:02:12;;;;;;;0.40;0.20;;;26.10;93.50;;;;;;4955839;28;20507;-77
2021/06/18 09:05:03;;;;;;;0.40;0.30;;;25.90;93.40;;;;;;4972395;28;20404;-78
2021/06/18 09:07:29;;;;;;;0.40;0.20;;;26.10;93.30;;;;;;4972518;28;20840;-76
2021/06/18 09:09:55;;;;;;;0.40;0.30;;;26.00;92.80;;;;;;4954851;28;20401;-78
2021/06/18 09:12:21;;;;;;;0.40;0.30;;;26.00;92.50;;;;;;4984307;28;20882;-76
2021/06/18 09:14:47;;;;;;;0.40;0.30;;;26.10;92.40;;;;;;4978729;28;20438;-78
2021/06/18 09:17:24;;;;;;;0.40;0.30;;;26.20;92.90;;;;;;4972766;28;20876;-77
2021/06/18 09:19:52;;;;;;;0.40;0.30;;;26.30;93.00;;;;;;4972330;28;20384;-73
2021/06/18 09:22:23;;;;;;;0.40;0.20;;;26.30;92.20;;;;;;4972404;28;20436;-76
2021/06/18 09:25:03;;;;;;;0.40;0.20;;;26.40;91.90;;;;;;4971598;28;20894;-76
2021/06/18 09:27:50;;;;;;;0.40;0.30;;;26.50;91.70;;;;;;4972392;28;20515;-76
2021/06/18 09:30:30;;;;;;;0.40;0.20;;;26.40;92.40;;;;;;4972259;28;20404;-75
2021/06/18 09:33:25;;;;;;;0.40;0.30;;;26.30;93.40;;;;;;4971608;28;20385;-75
2021/06/18 09:36:07;;;;;;;0.40;0.30;;;26.40;93.70;;;;;;4969385;28;20404;-75
2021/06/18 09:38:48;;;;;;;0.40;0.20;;;26.50;93.50;;;;;;4972287;28;20476;-77
2021/06/18 09:41:42;;;;;;;0.40;0.30;;;26.60;92.70;;;;;;4972190;28;20424;-77
2021/06/18 09:44:11;;;;;;;0.40;0.30;;;26.60;93.00;;;;;;4972309;28;20823;-76
2021/06/18 09:46:42;;;;;;;0.40;0.30;;;26.60;93.00;;;;;;4971278;28;20559;-78
2021/06/18 09:49:12;;;;;;;0.40;0.20;;;26.80;92.20;;;;;;4972330;28;20399;-76
2021/06/18 09:51:58;;;;;;;0.40;0.30;;;26.90;91.60;;;;;;4971597;28;20399;-76
2021/06/18 09:54:31;;;;;;;0.40;0.30;;;27.00;91.10;;;;;;4971788;28;20424;-76
2021/06/18 09:57:05;;;;;;;0.40;0.20;;;26.90;91.60;;;;;;4971239;28;20478;-76
2021/06/18 09:59:30;;;;;;;0.40;0.30;;;26.90;91.80;;;;;;4969335;28;20407;-76
2021/06/18 10:01:56;;;;;;;0.40;0.20;;;27.00;90.90;;;;;;4971173;28;20396;-77
2021/06/18 10:04:25;;;;;;;0.40;0.20;;;27.20;91.30;;;;;;4987110;28;20396;-76
2021/06/18 10:06:51;;;;;;;0.40;0.30;;;27.30;90.70;;;;;;4971274;28;20654;-76
2021/06/18 10:09:17;;;;;;;0.40;0.20;;;27.20;91.30;;;;;;4972237;28;20471;-76
2021/06/18 10:11:45;;;;;;;0.40;0.30;;;27.40;91.70;;;;;;4972912;28;20396;-76
2021/06/18 10:14:13;;;;;;;0.40;0.20;;;27.50;90.30;;;;;;4950489;29;20807;-77
2021/06/18 10:16:40;;;;;;;0.40;0.30;;;27.50;90.50;;;;;;4932872;29;20431;-75
2021/06/18 10:19:06;;;;;;;0.40;0.20;;;27.40;90.70;;;;;;4943504;29;20403;-75
2021/06/18 10:21:43;;;;;;;0.40;0.30;;;27.50;90.70;;;;;;4952107;28;20875;-75
2021/06/18 10:24:10;;;;;;;0.40;0.20;;;27.60;90.00;;;;;;4933654;29;20486;-75
2021/06/18 10:26:36;;;;;;;0.40;0.20;;;27.80;89.90;;;;;;4933241;29;20419;-79
2021/06/18 10:29:03;;;;;;;0.40;0.20;;;27.80;90.60;;;;;;4933802;29;20412;-76
2021/06/18 10:31:35;;;;;;;0.40;0.30;;;27.80;90.00;;;;;;4932328;29;20400;-76
2021/06/18 10:34:16;;;;;;;0.40;0.30;;;27.70;90.30;;;;;;4933123;29;20388;-74
2021/06/18 10:36:45;;;;;;;0.40;0.20;;;27.80;88.60;;;;;;4932818;29;20403;-76
2021/06/18 10:39:16;;;;;;;0.40;0.20;;;27.80;89.90;;;;;;4932522;29;20407;-76
2021/06/18 10:42:00;;;;;;;0.40;0.30;;;27.80;89.50;;;;;;4931335;29;20407;-74
2021/06/18 10:44:39;;;;;;;0.40;0.30;;;28.00;88.40;;;;;;4951220;29;20448;-76
2021/06/18 10:47:05;;;;;;;0.40;0.30;;;28.10;89.80;;;;;;4938849;29;20515;-76
2021/06/18 10:49:39;;;;;;;0.40;0.20;;;27.90;88.00;;;;;;4932291;29;20836;-76
2021/06/18 10:52:20;;;;;;;0.40;0.30;;;28.20;87.50;;;;;;4948344;29;20405;-76
2021/06/18 10:54:52;;;;;;;0.40;0.30;;;28.50;88.00;;;;;;4939844;29;20411;-76
2021/06/18 10:57:23;;;;;;;0.40;0.30;;;28.50;86.60;;;;;;4933428;29;20398;-76
2021/06/18 10:59:51;;;;;;;0.40;0.30;;;28.50;86.10;;;;;;4931364;29;20403;-76
2021/06/18 11:02:23;;;;;;;0.40;0.20;;;28.60;88.40;;;;;;4933233;29;20749;-75
2021/06/18 11:04:52;;;;;;;0.40;0.30;;;28.90;84.70;;;;;;4941033;29;20410;-73
2021/06/18 11:07:22;;;;;;;0.40;0.20;;;28.40;84.40;;;;;;4950405;29;20425;-76
2021/06/18 11:09:58;;;;;;;0.40;0.20;;;28.50;85.20;;;;;;4932487;29;20388;-73
2021/06/18 11:12:24;;;;;;;0.40;0.30;;;28.70;84.70;;;;;;4948763;29;20457;-75
2021/06/18 11:14:54;;;;;;;1.10;0.60;;;28.90;84.20;;;;;;4964781;28;20425;-75
2021/06/18 11:17:52;;;;;;;0.40;0.30;;;28.90;83.80;;;;;;4971618;28;20458;-75
2021/06/18 11:20:21;;;;;;;0.40;0.20;;;29.10;84.40;;;;;;4968192;28;20535;-75
2021/06/18 11:23:09;;;;;;;0.40;0.30;;;28.90;82.30;;;;;;4965786;28;20490;-75
2021/06/18 11:25:39;;;;;;;0.40;0.20;;;29.30;82.10;;;;;;4971374;28;20396;-75
2021/06/18 11:28:19;;;;;;;0.40;0.20;;;29.40;81.20;;;;;;4971310;28;20431;-75
2021/06/18 11:30:55;;;;;;;0.40;0.20;;;29.50;79.80;;;;;;4965547;28;20431;-75
2021/06/18 11:33:36;;;;;;;0.40;0.30;;;29.70;81.90;;;;;;4945163;28;20569;-77
2021/06/18 11:36:24;;;;;;;0.40;0.20;;;29.80;78.20;;;;;;4963188;28;20396;-76
2021/06/18 11:38:54;;;;;;;0.40;0.20;;;30.00;79.50;;;;;;4975173;28;20477;-75
2021/06/18 11:41:26;;;;;;;0.40;0.20;;;30.00;78.90;;;;;;4975356;28;20439;-76
2021/06/18 11:43:53;;;;;;;0.40;0.20;;;30.10;79.40;;;;;;4973128;28;20420;-74
2021/06/18 11:46:21;;;;;;;0.40;0.30;;;30.50;76.80;;;;;;4974359;28;20420;-77
2021/06/18 11:48:47;;;;;;;0.40;0.20;;;30.70;78.40;;;;;;4972838;28;20396;-77
2021/06/18 11:51:26;;;;;;;0.40;0.30;;;31.40;75.00;;;;;;4973529;28;20869;-75
2021/06/18 11:53:53;;;;;;;0.40;0.20;;;31.60;71.70;;;;;;4973124;28;20388;-76
2021/06/18 11:56:19;;;;;;;0.40;0.30;;;32.00;71.00;;;;;;4974137;28;20423;-76
2021/06/18 11:58:47;;;;;;;0.40;0.20;;;31.90;68.80;;;;;;4973154;28;20876;-79
2021/06/18 12:01:28;;;;;;;0.40;0.20;;;31.60;73.30;;;;;;4974188;28;20442;-76
2021/06/18 12:03:57;;;;;;;0.40;0.20;;;31.50;69.40;;;;;;4973082;28;20538;-77
2021/06/18 12:06:34;;;;;;;0.40;0.20;;;31.70;72.80;;;;;;4973869;28;20442;-79
2021/06/18 12:09:04;;;;;;;0.40;0.20;;;31.90;72.70;;;;;;4973053;28;20404;-76
2021/06/18 12:11:39;;;;;;;0.40;0.30;;;32.00;68.50;;;;;;4978361;28;20398;-76
2021/06/18 12:14:06;;;;;;;0.40;0.20;;;33.10;65.90;;;;;;4972727;28;20485;-74
2021/06/18 12:16:35;;;;;;;0.40;0.20;;;32.90;66.30;;;;;;4973523;28;20393;-75
2021/06/18 12:19:26;;;;;;;0.40;0.20;;;32.80;66.20;;;;;;4973079;28;20396;-76
2021/06/18 12:22:07;;;;;;;0.40;0.20;;;33.00;64.60;;;;;;4955364;28;20396;-75
2021/06/18 12:24:35;;;;;;;0.60;0.40;;;32.60;66.00;;;;;;4954049;29;20433;-75
2021/06/18 12:27:03;;;;;;;0.40;0.20;;;32.70;64.70;;;;;;4969609;28;20495;-73
2021/06/18 12:29:30;;;;;;;0.40;0.30;;;32.60;63.90;;;;;;4973303;28;20800;-74
2021/06/18 12:32:00;;;;;;;0.40;0.20;;;32.40;63.40;;;;;;4955059;28;20860;-75
2021/06/18 12:34:28;;;;;;;0.70;0.50;;;32.40;64.10;;;;;;4973021;28;20876;-75
2021/06/18 12:37:06;;;;;;;0.40;0.20;;;32.50;69.90;;;;;;4939539;28;20404;-75
2021/06/18 12:39:50;;;;;;;0.40;0.20;;;33.10;65.50;;;;;;4956049;28;20771;-74
2021/06/18 12:42:37;;;;;;;0.40;0.20;;;32.80;63.00;;;;;;4973438;28;20470;-75
2021/06/18 12:45:12;;;;;;;0.40;0.30;;;33.30;62.40;;;;;;4971996;28;20427;-74
2021/06/18 12:47:40;;;;;;;0.40;0.30;;;32.90;65.10;;;;;;4988431;28;20420;-74
2021/06/18 12:50:27;;;;;;;0.40;0.20;;;32.80;62.30;;;;;;4971862;28;20435;-75
2021/06/18 12:53:01;;;;;;;0.40;0.20;;;32.80;60.80;;;;;;4967292;28;20471;-74
2021/06/18 12:55:29;;;;;;;0.40;0.20;;;32.10;61.30;;;;;;4968138;28;20460;-75
2021/06/18 12:58:22;;;;;;;0.40;0.20;;;32.30;62.60;;;;;;4968957;28;20393;-74